Time;durP1;ratioP1;P1;durP2;ratioP2;P2;SDS_P1;SDS_P2;PMS_P1;PMS_P2;Temp;Humidity;BMP_temperature;BMP_pressure;BME280_temperature;BME280_humidity;BME280_pressure;Samples;Min_cycle;Max_cycle;Signal;HPM_P1;HPM_P2
2019/10/21 00:01:06;;;;;;;2.46;2.26;;;;;;;20.42;59.79;99975.20;;;;-50
2019/10/21 00:04:06;;;;;;;2.91;2.57;;;;;;;20.42;59.83;99972.83;;;;-50
2019/10/21 00:07:06;;;;;;;2.53;2.21;;;;;;;20.41;59.80;99984.30;;;;-50
2019/10/21 00:10:06;;;;;;;2.93;2.42;;;;;;;20.42;59.73;100000.09;;;;-50
2019/10/21 00:13:06;;;;;;;2.81;2.54;;;;;;;20.41;59.82;99995.53;;;;-50
2019/10/21 00:16:06;;;;;;;2.77;2.40;;;;;;;20.39;59.76;99999.43;;;;-50
2019/10/21 00:19:06;;;;;;;2.83;2.30;;;;;;;20.40;59.82;100020.66;;;;-50
2019/10/21 00:22:06;;;;;;;2.79;2.50;;;;;;;20.40;59.80;100033.41;;;;-50
2019/10/21 00:25:06;;;;;;;2.63;2.37;;;;;;;20.38;59.79;100039.71;;;;-50
2019/10/21 00:28:06;;;;;;;2.70;2.50;;;;;;;20.38;59.83;100050.78;;;;-49
2019/10/21 00:31:06;;;;;;;3.69;2.41;;;;;;;20.38;59.78;100064.13;;;;-50
2019/10/21 00:34:06;;;;;;;2.49;2.29;;;;;;;20.38;59.77;100067.15;;;;-50
2019/10/21 00:37:06;;;;;;;2.50;2.30;;;;;;;20.38;59.81;100066.98;;;;-50
2019/10/21 00:40:06;;;;;;;2.64;2.44;;;;;;;20.36;59.77;100072.95;;;;-50
2019/10/21 00:43:06;;;;;;;2.72;2.52;;;;;;;20.36;59.81;100092.14;;;;-50
2019/10/21 00:46:06;;;;;;;2.47;2.27;;;;;;;20.35;59.86;100104.45;;;;-50
2019/10/21 00:49:06;;;;;;;2.64;2.42;;;;;;;20.35;59.86;100105.28;;;;-50
2019/10/21 00:52:06;;;;;;;2.63;2.43;;;;;;;20.35;59.82;100106.13;;;;-49
2019/10/21 00:55:06;;;;;;;3.06;2.37;;;;;;;20.35;59.82;100108.88;;;;-50
2019/10/21 00:58:06;;;;;;;2.43;2.23;;;;;;;20.35;59.79;100123.39;;;;-50
2019/10/21 01:01:06;;;;;;;2.50;2.30;;;;;;;20.34;59.81;100126.88;;;;-50
2019/10/21 01:04:06;;;;;;;2.44;2.21;;;;;;;20.34;59.83;100136.52;;;;-49
2019/10/21 01:07:06;;;;;;;2.50;2.30;;;;;;;20.34;59.85;100134.43;;;;-50
2019/10/21 01:10:06;;;;;;;2.51;2.31;;;;;;;20.33;59.83;100145.63;;;;-50
2019/10/21 01:13:06;;;;;;;3.03;2.30;;;;;;;20.33;59.82;100166.09;;;;-50
2019/10/21 01:16:06;;;;;;;2.57;2.30;;;;;;;20.33;59.83;100176.95;;;;-50
2019/10/21 01:19:06;;;;;;;2.50;2.30;;;;;;;20.32;59.82;100191.11;;;;-50
2019/10/21 01:22:06;;;;;;;2.58;2.23;;;;;;;20.33;59.81;100209.93;;;;-50
2019/10/21 01:25:06;;;;;;;2.99;2.36;;;;;;;20.32;59.86;100215.94;;;;-50
2019/10/21 01:28:06;;;;;;;2.35;2.15;;;;;;;20.32;59.84;100218.02;;;;-51
2019/10/21 01:31:06;;;;;;;2.57;2.31;;;;;;;20.31;59.86;100223.11;;;;-50
2019/10/21 01:34:06;;;;;;;2.47;2.27;;;;;;;20.31;59.85;100228.58;;;;-50
2019/10/21 01:37:06;;;;;;;2.40;2.20;;;;;;;20.31;59.82;100246.65;;;;-50
2019/10/21 01:40:06;;;;;;;2.45;2.24;;;;;;;20.31;59.89;100258.32;;;;-50
2019/10/21 01:43:06;;;;;;;2.39;2.17;;;;;;;20.30;59.85;100259.12;;;;-50
2019/10/21 01:46:06;;;;;;;2.55;2.35;;;;;;;20.30;59.86;100258.02;;;;-50
2019/10/21 01:49:06;;;;;;;2.44;2.24;;;;;;;20.29;59.90;100247.05;;;;-50
2019/10/21 01:52:06;;;;;;;2.46;2.26;;;;;;;20.29;59.86;100238.80;;;;-50
2019/10/21 01:55:06;;;;;;;2.41;2.21;;;;;;;20.28;59.87;100235.34;;;;-50
2019/10/21 01:58:06;;;;;;;2.42;2.22;;;;;;;20.28;59.86;100230.47;;;;-50
2019/10/21 02:01:06;;;;;;;2.43;2.23;;;;;;;20.28;59.87;100232.15;;;;-50
2019/10/21 02:04:06;;;;;;;2.39;2.19;;;;;;;20.27;59.82;100237.48;;;;-50
2019/10/21 02:07:06;;;;;;;2.47;2.27;;;;;;;20.28;59.85;100244.19;;;;-50
2019/10/21 02:10:06;;;;;;;2.51;2.31;;;;;;;20.27;59.87;100244.79;;;;-50
2019/10/21 02:13:06;;;;;;;2.89;2.43;;;;;;;20.26;59.83;100241.36;;;;-50
2019/10/21 02:16:06;;;;;;;2.55;2.35;;;;;;;20.26;59.82;100246.56;;;;-51
2019/10/21 02:19:06;;;;;;;2.48;2.28;;;;;;;20.26;59.86;100262.49;;;;-50
2019/10/21 02:22:06;;;;;;;2.45;2.25;;;;;;;20.25;59.86;100262.80;;;;-50
2019/10/21 02:25:06;;;;;;;2.49;2.29;;;;;;;20.26;59.87;100261.66;;;;-50
2019/10/21 02:28:06;;;;;;;2.33;2.13;;;;;;;20.25;59.88;100270.27;;;;-50
2019/10/21 02:31:06;;;;;;;2.40;2.20;;;;;;;20.25;59.83;100269.00;;;;-50
2019/10/21 02:34:06;;;;;;;2.69;2.41;;;;;;;20.25;59.87;100273.05;;;;-50
2019/10/21 02:37:06;;;;;;;3.24;2.45;;;;;;;20.24;59.78;100282.47;;;;-50
2019/10/21 02:40:06;;;;;;;2.49;2.29;;;;;;;20.24;59.88;100308.03;;;;-50
2019/10/21 02:43:06;;;;;;;2.86;2.17;;;;;;;20.24;59.85;100316.24;;;;-50
2019/10/21 02:46:06;;;;;;;2.40;2.20;;;;;;;20.24;59.88;100315.51;;;;-50
2019/10/21 02:49:06;;;;;;;2.41;2.21;;;;;;;20.24;59.82;100305.84;;;;-50
2019/10/21 02:52:06;;;;;;;2.49;2.29;;;;;;;20.23;59.86;100309.37;;;;-50
2019/10/21 02:55:06;;;;;;;2.41;2.21;;;;;;;20.24;59.86;100302.66;;;;-50
2019/10/21 02:58:06;;;;;;;2.73;2.30;;;;;;;20.23;59.83;100306.14;;;;-50
2019/10/21 03:02:06;;;;;;;2.49;2.29;;;;;;;20.22;59.89;100315.70;;;;-50
2019/10/21 03:05:06;;;;;;;2.49;2.29;;;;;;;20.22;59.83;100299.44;;;;-50
2019/10/21 03:08:06;;;;;;;2.37;2.20;;;;;;;20.21;59.87;100300.73;;;;-50
2019/10/21 03:11:06;;;;;;;2.41;2.21;;;;;;;20.22;59.84;100314.99;;;;-51
2019/10/21 03:14:06;;;;;;;2.41;2.21;;;;;;;20.21;59.83;100332.27;;;;-50
2019/10/21 03:17:06;;;;;;;2.49;2.29;;;;;;;20.21;59.84;100332.77;;;;-50
2019/10/21 03:20:06;;;;;;;2.41;2.21;;;;;;;20.20;59.88;100333.90;;;;-50
2019/10/21 03:23:06;;;;;;;2.36;2.17;;;;;;;20.21;59.81;100327.63;;;;-50
2019/10/21 03:26:06;;;;;;;2.41;2.21;;;;;;;20.20;59.84;100316.80;;;;-50
2019/10/21 03:29:06;;;;;;;2.50;2.30;;;;;;;20.19;59.83;100315.75;;;;-51
2019/10/21 03:32:06;;;;;;;2.35;2.15;;;;;;;20.20;59.83;100319.55;;;;-50
2019/10/21 03:35:06;;;;;;;2.45;2.25;;;;;;;20.20;59.84;100314.67;;;;-50
2019/10/21 03:38:06;;;;;;;2.50;2.30;;;;;;;20.19;59.80;100304.18;;;;-50
2019/10/21 03:41:06;;;;;;;2.29;2.09;;;;;;;20.20;59.84;100303.78;;;;-50
2019/10/21 03:44:06;;;;;;;2.41;2.21;;;;;;;20.19;59.88;100292.51;;;;-50
2019/10/21 03:47:06;;;;;;;2.80;2.35;;;;;;;20.19;59.80;100295.19;;;;-50
2019/10/21 03:50:06;;;;;;;2.40;2.20;;;;;;;20.19;59.84;100290.16;;;;-50
2019/10/21 03:53:06;;;;;;;2.47;2.17;;;;;;;20.18;59.82;100289.22;;;;-50
2019/10/21 03:56:06;;;;;;;2.40;2.20;;;;;;;20.18;59.86;100293.31;;;;-51
2019/10/21 03:59:06;;;;;;;2.50;2.30;;;;;;;20.18;59.83;100296.66;;;;-50
2019/10/21 04:02:06;;;;;;;2.45;2.25;;;;;;;20.18;59.84;100309.30;;;;-50
2019/10/21 04:05:06;;;;;;;2.46;2.26;;;;;;;20.17;59.84;100331.60;;;;-50
2019/10/21 04:08:06;;;;;;;2.30;2.10;;;;;;;20.17;59.88;100352.73;;;;-50
2019/10/21 04:11:06;;;;;;;2.53;2.33;;;;;;;20.17;59.84;100360.50;;;;-50
2019/10/21 04:14:06;;;;;;;2.92;2.20;;;;;;;20.17;59.86;100359.50;;;;-51
2019/10/21 04:17:06;;;;;;;2.51;2.31;;;;;;;20.18;59.85;100360.78;;;;-50
2019/10/21 04:20:06;;;;;;;2.41;2.21;;;;;;;20.16;59.84;100373.98;;;;-50
2019/10/21 04:23:06;;;;;;;2.43;2.21;;;;;;;20.16;59.83;100378.30;;;;-51
2019/10/21 04:26:06;;;;;;;2.50;2.30;;;;;;;20.17;59.87;100379.78;;;;-51
2019/10/21 04:29:06;;;;;;;2.48;2.27;;;;;;;20.16;59.83;100381.09;;;;-50
2019/10/21 04:32:06;;;;;;;2.30;2.10;;;;;;;20.16;59.85;100393.27;;;;-50
2019/10/21 04:35:06;;;;;;;2.30;2.10;;;;;;;20.16;59.83;100388.80;;;;-50
2019/10/21 04:38:06;;;;;;;2.39;2.20;;;;;;;20.16;59.82;100387.13;;;;-51
2019/10/21 04:41:06;;;;;;;2.28;2.08;;;;;;;20.16;59.84;100389.70;;;;-50
2019/10/21 04:44:06;;;;;;;2.31;2.11;;;;;;;20.15;59.86;100393.39;;;;-50
2019/10/21 04:47:06;;;;;;;2.27;2.10;;;;;;;20.16;59.88;100407.41;;;;-50
2019/10/21 04:50:06;;;;;;;2.31;2.13;;;;;;;20.15;59.90;100413.68;;;;-50
2019/10/21 04:53:06;;;;;;;2.35;2.15;;;;;;;20.15;59.83;100410.83;;;;-50
2019/10/21 04:56:06;;;;;;;2.39;2.05;;;;;;;20.15;59.81;100418.88;;;;-50
2019/10/21 04:59:06;;;;;;;2.55;2.35;;;;;;;20.15;59.82;100422.56;;;;-50
2019/10/21 05:02:06;;;;;;;2.26;2.06;;;;;;;20.15;59.84;100427.83;;;;-50
2019/10/21 05:05:06;;;;;;;2.47;2.27;;;;;;;20.14;59.80;100431.41;;;;-50
2019/10/21 05:08:06;;;;;;;2.89;2.12;;;;;;;20.14;59.83;100426.38;;;;-51
2019/10/21 05:11:06;;;;;;;2.40;2.20;;;;;;;20.15;59.82;100432.12;;;;-50
2019/10/21 05:14:06;;;;;;;2.11;2.01;;;;;;;20.14;59.77;100447.34;;;;-51
2019/10/21 05:17:06;;;;;;;2.27;2.08;;;;;;;20.14;59.83;100443.48;;;;-51
2019/10/21 05:20:06;;;;;;;2.23;2.03;;;;;;;20.14;59.82;100435.67;;;;-50
2019/10/21 05:23:06;;;;;;;2.25;2.15;;;;;;;20.13;59.85;100450.48;;;;-50
2019/10/21 05:26:06;;;;;;;2.13;2.00;;;;;;;20.14;59.81;100456.22;;;;-50
2019/10/21 05:29:06;;;;;;;2.40;2.20;;;;;;;20.14;59.83;100455.61;;;;-50
2019/10/21 05:32:06;;;;;;;2.30;2.15;;;;;;;20.13;59.84;100462.22;;;;-50
2019/10/21 05:35:06;;;;;;;2.20;2.00;;;;;;;20.14;59.82;100463.83;;;;-50
2019/10/21 05:38:06;;;;;;;2.30;2.10;;;;;;;20.14;59.77;100484.23;;;;-50
2019/10/21 05:41:06;;;;;;;2.53;2.13;;;;;;;20.14;59.82;100486.47;;;;-50
2019/10/21 05:44:06;;;;;;;2.24;2.07;;;;;;;20.14;59.79;100494.95;;;;-50
2019/10/21 05:47:06;;;;;;;2.24;2.04;;;;;;;20.13;59.78;100490.73;;;;-50
2019/10/21 05:50:06;;;;;;;2.00;1.90;;;;;;;20.14;59.78;100490.49;;;;-50
2019/10/21 05:53:06;;;;;;;2.23;2.03;;;;;;;20.13;59.80;100492.13;;;;-50
2019/10/21 05:56:06;;;;;;;2.43;2.23;;;;;;;20.13;59.77;100499.11;;;;-50
2019/10/21 05:59:06;;;;;;;2.23;2.04;;;;;;;20.13;59.82;100497.16;;;;-50
2019/10/21 06:02:06;;;;;;;2.14;2.04;;;;;;;20.13;59.79;100495.58;;;;-50
2019/10/21 06:05:06;;;;;;;2.31;2.11;;;;;;;20.13;59.79;100520.97;;;;-56
2019/10/21 06:08:06;;;;;;;2.16;1.95;;;;;;;20.13;59.76;100530.45;;;;-56
2019/10/21 06:11:06;;;;;;;2.31;2.11;;;;;;;20.14;59.76;100528.32;;;;-47
2019/10/21 06:14:06;;;;;;;2.35;2.16;;;;;;;20.13;59.76;100523.75;;;;-50
2019/10/21 06:17:06;;;;;;;2.40;2.20;;;;;;;20.13;59.81;100529.95;;;;-56
2019/10/21 06:20:06;;;;;;;2.31;2.11;;;;;;;20.13;59.79;100541.42;;;;-50
2019/10/21 06:23:06;;;;;;;2.13;2.01;;;;;;;20.13;59.73;100544.78;;;;-50
2019/10/21 06:26:06;;;;;;;2.20;2.00;;;;;;;20.12;59.80;100532.33;;;;-50
2019/10/21 06:29:06;;;;;;;2.37;2.17;;;;;;;20.13;59.78;100538.91;;;;-50
2019/10/21 06:32:06;;;;;;;2.31;2.11;;;;;;;20.13;59.76;100539.34;;;;-50
2019/10/21 06:35:06;;;;;;;2.31;2.11;;;;;;;20.13;59.72;100529.52;;;;-50
2019/10/21 06:38:06;;;;;;;2.10;2.00;;;;;;;20.13;59.73;100529.95;;;;-50
2019/10/21 06:41:06;;;;;;;2.23;2.10;;;;;;;20.13;59.75;100531.46;;;;-49
2019/10/21 06:44:06;;;;;;;2.27;2.07;;;;;;;20.13;59.76;100539.08;;;;-50
2019/10/21 06:47:06;;;;;;;2.33;2.13;;;;;;;20.13;59.75;100547.23;;;;-50
2019/10/21 06:50:06;;;;;;;1.93;1.81;;;;;;;20.13;59.75;100539.08;;;;-50
2019/10/21 06:53:06;;;;;;;2.07;1.97;;;;;;;20.13;59.76;100549.64;;;;-50
2019/10/21 06:56:06;;;;;;;2.17;1.97;;;;;;;20.13;59.73;100550.48;;;;-50
2019/10/21 06:59:06;;;;;;;2.01;1.91;;;;;;;20.14;59.72;100562.92;;;;-49
2019/10/21 07:02:06;;;;;;;1.98;1.88;;;;;;;20.13;59.70;100561.64;;;;-50
2019/10/21 07:05:06;;;;;;;2.33;2.13;;;;;;;20.14;59.70;100564.11;;;;-50
2019/10/21 07:08:06;;;;;;;2.14;2.00;;;;;;;20.14;59.70;100565.04;;;;-47
2019/10/21 07:11:06;;;;;;;2.21;2.03;;;;;;;20.13;59.74;100573.22;;;;-46
2019/10/21 07:14:06;;;;;;;2.21;2.01;;;;;;;20.13;59.70;100577.31;;;;-47
2019/10/21 07:17:06;;;;;;;2.23;2.06;;;;;;;20.13;59.75;100576.91;;;;-46
2019/10/21 07:20:06;;;;;;;1.98;1.88;;;;;;;20.14;59.82;100585.33;;;;-46
2019/10/21 07:23:06;;;;;;;2.37;2.17;;;;;;;20.14;59.74;100591.03;;;;-47
2019/10/21 07:26:06;;;;;;;2.13;2.00;;;;;;;20.14;59.78;100595.40;;;;-46
2019/10/21 07:29:06;;;;;;;2.49;2.00;;;;;;;20.14;59.76;100601.44;;;;-50
2019/10/21 07:32:06;;;;;;;2.06;1.95;;;;;;;20.14;59.74;100616.92;;;;-50
2019/10/21 07:35:06;;;;;;;2.30;2.10;;;;;;;20.14;59.77;100619.71;;;;-50
2019/10/21 07:38:06;;;;;;;2.21;2.01;;;;;;;20.12;59.73;100626.66;;;;-50
2019/10/21 07:41:06;;;;;;;3.44;2.29;;;;;;;20.15;59.91;100643.13;;;;-48
2019/10/21 07:44:06;;;;;;;3.53;2.07;;;;;;;20.16;59.99;100647.93;;;;-49
2019/10/21 07:47:06;;;;;;;3.49;2.10;;;;;;;20.17;60.19;100660.92;;;;-51
2019/10/21 07:50:06;;;;;;;3.89;2.23;;;;;;;20.19;60.41;100685.05;;;;-47
2019/10/21 07:53:06;;;;;;;4.27;2.20;;;;;;;20.21;60.43;100693.81;;;;-48
2019/10/21 07:56:06;;;;;;;3.64;2.38;;;;;;;20.25;60.41;100702.67;;;;-50
2019/10/21 07:59:06;;;;;;;3.98;2.31;;;;;;;20.27;60.51;100705.44;;;;-50
2019/10/21 08:02:06;;;;;;;4.34;2.33;;;;;;;20.29;60.46;100695.20;;;;-58
2019/10/21 08:05:06;;;;;;;3.95;2.37;;;;;;;20.29;60.37;100697.92;;;;-56
2019/10/21 08:08:06;;;;;;;4.07;2.50;;;;;;;20.29;60.55;100688.16;;;;-56
2019/10/21 08:11:06;;;;;;;2.60;2.40;;;;;;;20.30;60.32;100684.95;;;;-57
2019/10/21 08:14:06;;;;;;;4.03;2.21;;;;;;;20.29;60.29;100691.01;;;;-58
2019/10/21 08:17:06;;;;;;;2.55;2.25;;;;;;;20.31;60.44;100690.36;;;;-52
2019/10/21 08:20:06;;;;;;;4.60;2.27;;;;;;;20.32;60.41;100700.23;;;;-60
2019/10/21 08:23:06;;;;;;;3.74;2.29;;;;;;;20.34;60.31;100699.39;;;;-57
2019/10/21 08:26:06;;;;;;;5.13;2.29;;;;;;;20.35;60.30;100697.36;;;;-56
2019/10/21 08:29:06;;;;;;;4.18;2.20;;;;;;;20.38;60.36;100699.23;;;;-59
2019/10/21 08:32:06;;;;;;;5.57;2.48;;;;;;;20.39;60.29;100710.01;;;;-60
2019/10/21 08:35:06;;;;;;;3.85;2.51;;;;;;;20.40;60.30;100714.31;;;;-59
2019/10/21 08:38:06;;;;;;;3.81;2.07;;;;;;;20.41;60.43;100717.15;;;;-62
2019/10/21 08:41:06;;;;;;;3.15;2.25;;;;;;;20.43;60.51;100712.20;;;;-58
2019/10/21 08:44:06;;;;;;;2.49;2.20;;;;;;;20.43;60.56;100702.08;;;;-55
2019/10/21 08:47:06;;;;;;;6.71;2.25;;;;;;;20.44;60.40;100695.98;;;;-56
2019/10/21 08:50:06;;;;;;;2.71;2.14;;;;;;;20.45;60.46;100701.55;;;;-57
2019/10/21 08:53:06;;;;;;;4.39;2.20;;;;;;;20.47;60.49;100726.14;;;;-54
2019/10/21 08:56:06;;;;;;;3.13;2.21;;;;;;;20.47;60.31;100743.66;;;;-51
2019/10/21 08:59:06;;;;;;;3.91;2.23;;;;;;;20.45;60.40;100757.25;;;;-50
2019/10/21 09:02:06;;;;;;;3.86;2.36;;;;;;;20.46;60.67;100774.23;;;;-60
2019/10/21 09:05:06;;;;;;;2.68;2.28;;;;;;;20.47;60.46;100768.42;;;;-54
2019/10/21 09:08:06;;;;;;;3.17;2.18;;;;;;;20.48;60.51;100760.34;;;;-48
2019/10/21 09:11:06;;;;;;;2.59;2.20;;;;;;;20.49;60.41;100754.75;;;;-52
2019/10/21 09:14:07;;;;;;;4.12;2.20;;;;;;;20.49;60.22;100750.95;;;;-51
2019/10/21 09:17:07;;;;;;;4.39;2.43;;;;;;;20.49;60.38;100759.11;;;;-51
2019/10/21 09:20:07;;;;;;;2.74;2.22;;;;;;;20.49;60.27;100751.91;;;;-51
2019/10/21 09:23:06;;;;;;;6.06;2.44;;;;;;;20.49;60.44;100749.17;;;;-49
2019/10/21 09:26:06;;;;;;;8.11;2.41;;;;;;;20.51;60.89;100755.24;;;;-45
2019/10/21 09:29:06;;;;;;;5.52;2.64;;;;;;;20.52;60.60;100755.66;;;;-48
2019/10/21 09:32:06;;;;;;;5.76;2.52;;;;;;;20.53;61.01;100758.73;;;;-48
2019/10/21 09:35:06;;;;;;;7.80;2.59;;;;;;;20.54;60.89;100755.92;;;;-49
2019/10/21 09:38:06;;;;;;;4.26;2.66;;;;;;;20.54;60.74;100742.66;;;;-51
2019/10/21 09:41:06;;;;;;;6.99;2.63;;;;;;;20.56;60.61;100743.32;;;;-52
2019/10/21 09:44:06;;;;;;;3.97;2.47;;;;;;;20.57;60.67;100746.17;;;;-45
2019/10/21 09:47:06;;;;;;;5.55;2.54;;;;;;;20.58;60.51;100752.59;;;;-46
2019/10/21 09:50:07;;;;;;;7.09;2.68;;;;;;;20.60;60.44;100769.64;;;;-50
2019/10/21 09:53:06;;;;;;;3.74;2.50;;;;;;;20.59;60.49;100762.82;;;;-51
2019/10/21 09:56:06;;;;;;;4.49;2.53;;;;;;;20.59;60.36;100757.38;;;;-49
2019/10/21 09:59:06;;;;;;;4.39;2.47;;;;;;;20.60;60.39;100762.80;;;;-51
2019/10/21 10:02:06;;;;;;;4.43;2.52;;;;;;;20.60;60.26;100771.69;;;;-50
2019/10/21 10:05:06;;;;;;;4.08;2.55;;;;;;;20.61;60.26;100774.55;;;;-50
2019/10/21 10:08:06;;;;;;;4.99;2.51;;;;;;;20.62;60.46;100768.16;;;;-49
2019/10/21 10:11:06;;;;;;;3.81;2.48;;;;;;;20.63;60.49;100775.75;;;;-48
2019/10/21 10:14:06;;;;;;;3.87;2.57;;;;;;;20.66;60.53;100791.50;;;;-46
2019/10/21 10:17:06;;;;;;;5.07;2.53;;;;;;;20.67;60.62;100791.88;;;;-47
2019/10/21 10:20:06;;;;;;;9.55;2.39;;;;;;;20.67;60.69;100790.36;;;;-52
2019/10/21 10:23:06;;;;;;;5.33;2.74;;;;;;;20.68;60.90;100800.14;;;;-45
2019/10/21 10:26:23;;;;;;;6.27;2.50;;;;;;;20.70;60.82;100805.11;;;;-48
2019/10/21 10:29:08;;;;;;;5.69;2.46;;;;;;;20.70;60.60;100815.84;;;;-50
2019/10/21 10:32:06;;;;;;;6.99;2.63;;;;;;;20.70;60.51;100826.92;;;;-50
2019/10/21 10:35:06;;;;;;;6.43;2.48;;;;;;;20.69;60.68;100837.28;;;;-50
2019/10/21 10:38:06;;;;;;;7.15;2.54;;;;;;;20.69;60.55;100827.37;;;;-50
2019/10/21 10:41:06;;;;;;;3.61;2.52;;;;;;;20.68;60.49;100819.61;;;;-50
2019/10/21 10:44:06;;;;;;;4.70;2.33;;;;;;;20.67;60.47;100826.34;;;;-50
2019/10/21 10:47:06;;;;;;;4.65;2.39;;;;;;;20.67;60.32;100840.88;;;;-50
2019/10/21 10:50:06;;;;;;;9.23;2.68;;;;;;;20.67;60.46;100859.41;;;;-45
2019/10/21 10:53:06;;;;;;;5.62;2.44;;;;;;;20.67;60.36;100863.77;;;;-47
2019/10/21 10:56:06;;;;;;;4.75;2.47;;;;;;;20.68;60.39;100878.42;;;;-50
2019/10/21 10:59:06;;;;;;;6.15;2.35;;;;;;;20.67;60.37;100890.62;;;;-48
2019/10/21 11:02:06;;;;;;;6.30;2.47;;;;;;;20.68;60.34;100898.83;;;;-48
2019/10/21 11:05:06;;;;;;;5.97;2.48;;;;;;;20.67;60.21;100888.05;;;;-48
2019/10/21 11:08:06;;;;;;;4.19;2.43;;;;;;;20.66;60.12;100865.23;;;;-48
2019/10/21 11:11:06;;;;;;;5.16;2.27;;;;;;;20.65;60.08;100863.78;;;;-48
2019/10/21 11:14:06;;;;;;;4.45;2.18;;;;;;;20.66;60.02;100858.52;;;;-48
2019/10/21 11:17:06;;;;;;;3.23;2.31;;;;;;;20.65;59.95;100855.23;;;;-48
2019/10/21 11:20:06;;;;;;;4.69;2.39;;;;;;;20.64;59.97;100862.39;;;;-48
2019/10/21 11:23:06;;;;;;;3.52;2.61;;;;;;;20.65;59.93;100870.33;;;;-48
2019/10/21 11:26:06;;;;;;;3.75;2.19;;;;;;;20.65;59.92;100876.10;;;;-48
2019/10/21 11:29:06;;;;;;;3.95;2.29;;;;;;;20.64;59.85;100879.73;;;;-48
2019/10/21 11:32:06;;;;;;;3.93;2.37;;;;;;;20.64;59.79;100879.00;;;;-48
2019/10/21 11:35:06;;;;;;;3.13;2.20;;;;;;;20.64;59.81;100884.61;;;;-48
2019/10/21 11:38:06;;;;;;;2.83;2.26;;;;;;;20.63;59.79;100885.73;;;;-48
2019/10/21 11:41:06;;;;;;;4.89;2.44;;;;;;;20.63;59.91;100886.58;;;;-48
2019/10/21 11:44:06;;;;;;;5.65;2.33;;;;;;;20.62;59.84;100895.46;;;;-48
2019/10/21 11:47:06;;;;;;;3.97;2.14;;;;;;;20.62;59.95;100895.87;;;;-48
2019/10/21 11:50:06;;;;;;;2.49;2.19;;;;;;;20.63;59.85;100891.89;;;;-47
2019/10/21 11:53:06;;;;;;;4.51;2.19;;;;;;;20.63;59.81;100896.81;;;;-48
2019/10/21 11:56:06;;;;;;;4.24;2.35;;;;;;;20.63;59.74;100901.52;;;;-48
2019/10/21 11:59:06;;;;;;;8.59;2.35;;;;;;;20.63;60.09;100908.89;;;;-56
2019/10/21 12:02:06;;;;;;;3.53;2.14;;;;;;;20.62;59.99;100909.80;;;;-53
2019/10/21 12:05:06;;;;;;;6.21;2.27;;;;;;;20.62;60.05;100918.52;;;;-48
2019/10/21 12:08:06;;;;;;;5.20;2.39;;;;;;;20.65;59.97;100917.39;;;;-48
2019/10/21 12:11:06;;;;;;;6.04;2.34;;;;;;;20.65;60.06;100918.55;;;;-52
2019/10/21 12:14:06;;;;;;;16.47;3.09;;;;;;;20.67;60.08;100930.84;;;;-52
2019/10/21 12:17:06;;;;;;;8.41;2.59;;;;;;;20.67;60.20;100934.20;;;;-51
2019/10/21 12:20:06;;;;;;;6.44;2.53;;;;;;;20.69;60.04;100927.31;;;;-54
2019/10/21 12:23:06;;;;;;;9.83;2.57;;;;;;;20.70;60.02;100903.52;;;;-52
2019/10/21 12:26:06;;;;;;;6.01;2.37;;;;;;;20.70;59.96;100911.84;;;;-51
2019/10/21 12:29:06;;;;;;;7.68;2.49;;;;;;;20.71;60.04;100914.91;;;;-54
2019/10/21 12:32:06;;;;;;;12.08;2.87;;;;;;;20.71;60.15;100923.70;;;;-51
2019/10/21 12:35:06;;;;;;;3.87;2.55;;;;;;;20.71;59.98;100919.02;;;;-52
2019/10/21 12:38:06;;;;;;;8.08;2.55;;;;;;;20.72;59.95;100913.52;;;;-52
2019/10/21 12:41:06;;;;;;;8.47;2.53;;;;;;;20.72;59.99;100914.92;;;;-52
2019/10/21 12:44:06;;;;;;;7.47;2.65;;;;;;;20.71;60.04;100910.28;;;;-50
2019/10/21 12:47:06;;;;;;;12.07;2.60;;;;;;;20.72;59.94;100913.34;;;;-52
2019/10/21 12:50:06;;;;;;;4.90;2.41;;;;;;;20.71;59.96;100916.76;;;;-52
2019/10/21 12:53:06;;;;;;;5.91;2.42;;;;;;;20.72;59.92;100926.44;;;;-52
2019/10/21 12:56:06;;;;;;;6.67;2.15;;;;;;;20.71;59.95;100933.72;;;;-52
2019/10/21 12:59:06;;;;;;;8.89;2.55;;;;;;;20.70;59.90;100927.85;;;;-52
2019/10/21 13:02:06;;;;;;;5.87;2.52;;;;;;;20.69;59.95;100926.58;;;;-53
2019/10/21 13:05:06;;;;;;;6.11;2.51;;;;;;;20.69;59.85;100925.06;;;;-52
2019/10/21 13:08:06;;;;;;;9.01;2.60;;;;;;;20.68;59.89;100926.36;;;;-52
2019/10/21 13:11:06;;;;;;;8.00;2.61;;;;;;;20.68;59.80;100914.10;;;;-52
2019/10/21 13:14:06;;;;;;;7.78;2.23;;;;;;;20.66;59.77;100910.83;;;;-52
2019/10/21 13:17:06;;;;;;;8.81;2.72;;;;;;;20.66;59.89;100903.50;;;;-52
2019/10/21 13:20:06;;;;;;;4.83;2.49;;;;;;;20.67;59.96;100905.05;;;;-59
2019/10/21 13:23:06;;;;;;;7.10;2.43;;;;;;;20.69;59.88;100909.28;;;;-56
2019/10/21 13:26:06;;;;;;;7.82;2.43;;;;;;;20.70;59.90;100909.39;;;;-60
2019/10/21 13:29:06;;;;;;;7.49;2.43;;;;;;;20.72;59.94;100914.86;;;;-58
2019/10/21 13:32:06;;;;;;;6.86;2.42;;;;;;;20.71;59.89;100914.31;;;;-55
2019/10/21 13:35:06;;;;;;;5.53;2.15;;;;;;;20.73;59.95;100920.17;;;;-54
2019/10/21 13:38:06;;;;;;;6.10;2.38;;;;;;;20.73;60.02;100922.28;;;;-59
2019/10/21 13:41:06;;;;;;;7.51;2.30;;;;;;;20.74;60.00;100918.37;;;;-57
2019/10/21 13:44:06;;;;;;;3.21;2.24;;;;;;;20.74;60.00;100918.20;;;;-59
2019/10/21 13:47:06;;;;;;;4.73;2.32;;;;;;;20.75;59.96;100919.70;;;;-58
2019/10/21 13:50:06;;;;;;;5.92;2.19;;;;;;;20.75;60.09;100916.67;;;;-57
2019/10/21 13:53:06;;;;;;;4.47;2.25;;;;;;;20.77;60.04;100914.92;;;;-57
2019/10/21 13:56:06;;;;;;;6.09;2.40;;;;;;;20.73;60.05;100915.85;;;;-63
2019/10/21 13:59:06;;;;;;;6.55;2.21;;;;;;;20.74;60.05;100920.48;;;;-64
2019/10/21 14:02:06;;;;;;;5.67;2.17;;;;;;;20.75;59.87;100924.90;;;;-63
2019/10/21 14:05:06;;;;;;;4.17;2.08;;;;;;;20.72;59.86;100925.37;;;;-64
2019/10/21 14:08:06;;;;;;;7.93;2.26;;;;;;;20.72;59.82;100927.95;;;;-63
2019/10/21 14:11:06;;;;;;;4.43;2.04;;;;;;;20.72;59.85;100926.44;;;;-62
2019/10/21 14:14:06;;;;;;;3.27;2.19;;;;;;;20.70;59.79;100921.58;;;;-63
2019/10/21 14:17:06;;;;;;;4.17;2.08;;;;;;;20.70;59.79;100927.02;;;;-64
2019/10/21 14:20:06;;;;;;;2.58;1.99;;;;;;;20.69;59.74;100926.06;;;;-63
2019/10/21 14:23:06;;;;;;;5.39;2.15;;;;;;;20.68;59.75;100937.50;;;;-63
2019/10/21 14:26:06;;;;;;;3.75;1.83;;;;;;;20.68;59.73;100939.61;;;;-63
2019/10/21 14:29:06;;;;;;;8.19;2.33;;;;;;;20.67;59.70;100936.38;;;;-63
2019/10/21 14:32:06;;;;;;;3.93;2.01;;;;;;;20.68;59.72;100940.69;;;;-63
2019/10/21 14:35:06;;;;;;;2.91;2.01;;;;;;;20.67;59.70;100949.20;;;;-63
2019/10/21 14:38:06;;;;;;;3.25;2.17;;;;;;;20.67;59.63;100952.38;;;;-64
2019/10/21 14:41:06;;;;;;;3.43;2.03;;;;;;;20.66;59.64;100955.13;;;;-63
2019/10/21 14:44:06;;;;;;;2.97;2.00;;;;;;;20.65;59.65;100958.77;;;;-64
2019/10/21 14:47:06;;;;;;;3.30;2.11;;;;;;;20.65;59.64;100961.53;;;;-62
2019/10/21 14:50:06;;;;;;;4.04;1.97;;;;;;;20.64;59.67;100959.23;;;;-63
2019/10/21 14:53:06;;;;;;;3.25;1.91;;;;;;;20.64;59.59;100949.83;;;;-64
2019/10/21 14:56:06;;;;;;;2.71;1.81;;;;;;;20.63;59.55;100957.17;;;;-64
2019/10/21 14:59:06;;;;;;;2.93;2.01;;;;;;;20.64;59.61;100964.43;;;;-53
2019/10/21 15:02:06;;;;;;;6.66;2.19;;;;;;;20.63;59.92;100967.91;;;;-54
2019/10/21 15:05:06;;;;;;;9.11;2.21;;;;;;;20.64;60.10;100962.82;;;;-56
2019/10/21 15:08:06;;;;;;;9.72;2.16;;;;;;;20.65;60.01;100967.34;;;;-56
2019/10/21 15:11:06;;;;;;;5.57;2.34;;;;;;;20.66;60.06;100964.69;;;;-58
2019/10/21 15:14:06;;;;;;;5.05;1.98;;;;;;;20.66;60.07;100973.92;;;;-58
2019/10/21 15:17:06;;;;;;;3.98;1.93;;;;;;;20.67;60.11;100971.36;;;;-52
2019/10/21 15:20:06;;;;;;;3.48;2.10;;;;;;;20.68;60.21;100970.67;;;;-51
2019/10/21 15:23:06;;;;;;;3.32;2.07;;;;;;;20.68;60.20;100984.43;;;;-57
2019/10/21 15:26:06;;;;;;;6.28;2.13;;;;;;;20.69;60.22;100982.29;;;;-56
2019/10/21 15:29:06;;;;;;;5.10;1.93;;;;;;;20.71;60.28;100987.25;;;;-52
2019/10/21 15:32:06;;;;;;;4.56;2.17;;;;;;;20.71;60.20;100985.13;;;;-51
2019/10/21 15:35:06;;;;;;;3.55;2.01;;;;;;;20.71;60.32;100993.63;;;;-54
2019/10/21 15:38:06;;;;;;;4.67;1.94;;;;;;;20.72;60.22;100994.52;;;;-54
2019/10/21 15:41:06;;;;;;;4.18;1.90;;;;;;;20.73;60.29;100993.13;;;;-52
2019/10/21 15:44:06;;;;;;;4.16;1.98;;;;;;;20.74;60.39;100986.40;;;;-53
2019/10/21 15:47:06;;;;;;;3.27;1.90;;;;;;;20.74;60.33;100970.58;;;;-51
2019/10/21 15:50:06;;;;;;;4.59;1.99;;;;;;;20.75;60.26;100958.80;;;;-51
2019/10/21 15:53:06;;;;;;;2.79;1.70;;;;;;;20.75;60.32;100969.16;;;;-51
2019/10/21 15:56:06;;;;;;;4.50;1.89;;;;;;;20.75;60.21;100967.81;;;;-52
2019/10/21 15:59:06;;;;;;;5.50;1.83;;;;;;;20.76;60.17;100974.30;;;;-51
2019/10/21 16:02:06;;;;;;;3.78;1.83;;;;;;;20.77;60.29;100969.55;;;;-50
2019/10/21 16:05:06;;;;;;;3.41;1.97;;;;;;;20.77;60.12;100966.62;;;;-54
2019/10/21 16:08:06;;;;;;;6.76;2.00;;;;;;;20.77;60.31;100978.55;;;;-50
2019/10/21 16:11:06;;;;;;;3.33;2.01;;;;;;;20.77;60.28;100974.75;;;;-52
2019/10/21 16:14:06;;;;;;;3.32;1.91;;;;;;;20.77;60.30;100986.50;;;;-49
2019/10/21 16:17:06;;;;;;;8.55;2.13;;;;;;;20.77;60.26;100994.77;;;;-54
2019/10/21 16:20:06;;;;;;;2.81;1.74;;;;;;;20.77;60.20;101010.16;;;;-51
2019/10/21 16:23:06;;;;;;;3.84;1.85;;;;;;;20.76;60.29;101026.50;;;;-51
2019/10/21 16:26:06;;;;;;;3.55;1.78;;;;;;;20.77;60.11;101032.20;;;;-51
2019/10/21 16:29:06;;;;;;;3.16;1.67;;;;;;;20.77;60.11;101035.78;;;;-52
2019/10/21 16:32:06;;;;;;;4.03;1.78;;;;;;;20.75;60.12;101034.85;;;;-51
2019/10/21 16:35:06;;;;;;;3.20;1.87;;;;;;;20.74;60.08;101029.27;;;;-51
2019/10/21 16:38:06;;;;;;;3.70;1.92;;;;;;;20.73;60.10;101042.54;;;;-50
2019/10/21 16:41:06;;;;;;;4.09;1.98;;;;;;;20.73;60.05;101038.52;;;;-51
2019/10/21 16:44:06;;;;;;;3.59;1.82;;;;;;;20.73;60.02;101036.60;;;;-51